Dickinson Theodore Roosevelt Regional Airport
KDIK : now visible

Airfield :











YOU CAN JOIN US ON...

 
LOGIN :

Register | Disclaimer

   EN    FR    IT 

 









Legend :    VFR   Marginal VFR   IFR   Intensive IFR   Very Intensive IFR
Visi :
Ceiling :
>= 8 km
>= 3000ft
5 to 8 km
1000 to 3000 ft
1500m to 5 km
500 to 1000 ft
800 to 1500m
200 to 500 ft
< 800m
< 200 ft
Symbols :   Thunderstorms  Fog  Heavy snow  Heavy precipitations  Wind > 20 kt






- Airport Elevation : 2592 ft


KDIK - Dickinson Theodore Roosevelt Regional

CURRENT METAR :
  • 042256Z AUTO 17008KT 10SM CLR 27/15 A2997 RMK AO2 RAE03 SLP135 P0000 T02670150

EXPIRED METARs :
  • 042156Z AUTO 14007KT 10SM -RA FEW024 BKN090 OVC110 24/16 A2998 RMK AO2 RAB28 SLP142 P0000 T02390161
  • 042056Z AUTO 11003KT 10SM FEW041 SCT110 25/14 A3001 RMK AO2 LTG DSNT W SLP151 T02500144 56005

TAF KDIK
Valid from the 04 at 21:00 until the 05 at 18:00 UTC


042112Z 0421/0518 13005KT P6SM VCTS SCT040CB SCT110
FM050000 06006KT P6SM VCTS FEW050CB SCT250
FM050300 30005KT P6SM FEW050 FEW250
FM051700 34011G19KT P6SM SKC
KZMP FIR / North America



MET'MAP, your aeronautical weather chart ! - Copyright ORBIFLY December 2007 - Disclaimer

ORBIFLY MET'MAP TEAM :

Programming & Development : Alexandra Zaïnal
Concept & original design : Baudouin d'Aumeries
Assistance for programming : Marc-Olivier Méhu
Technical & hardware support : Manuel Goepfert

Contact : metmap@orbifly.com




SOURCES & CREDITS :

   NOAA       Earth
Advisory